createdAt,value
2023-03-22T00:01:48.955Z,100246.19
2023-03-22T00:04:15.623Z,100237.38
2023-03-22T00:06:44.649Z,100237.97
2023-03-22T00:09:11.402Z,100245.59
2023-03-22T00:11:42.930Z,100242.06
2023-03-22T00:14:12.006Z,100241.84
2023-03-22T00:16:38.557Z,100249.50
2023-03-22T00:19:07.797Z,100245.19
2023-03-22T00:21:34.433Z,100237.44
2023-03-22T00:24:03.984Z,100240.91
2023-03-22T00:26:30.574Z,100247.66
2023-03-22T00:28:57.184Z,100244.09
2023-03-22T00:31:23.897Z,100244.72
2023-03-22T00:33:50.648Z,100246.34
2023-03-22T00:36:17.214Z,100247.16
2023-03-22T00:38:44.615Z,100244.50
2023-03-22T00:41:11.895Z,100239.69
2023-03-22T00:43:38.527Z,100237.69
2023-03-22T00:46:05.841Z,100244.88
2023-03-22T00:48:35.209Z,100238.75
2023-03-22T00:51:01.910Z,100239.66
2023-03-22T00:53:33.322Z,100239.50
2023-03-22T00:56:02.290Z,100243.53
2023-03-22T00:58:35.224Z,100235.66
2023-03-22T01:01:02.050Z,100235.59
2023-03-22T01:03:29.161Z,100233.66
2023-03-22T01:05:58.156Z,100232.00
2023-03-22T01:08:24.997Z,100233.06
2023-03-22T01:10:51.735Z,100223.25
2023-03-22T01:13:20.737Z,100225.94
2023-03-22T01:15:50.230Z,100220.09
2023-03-22T01:18:17.433Z,100224.28
2023-03-22T01:20:48.561Z,100216.22
2023-03-22T01:23:16.079Z,100209.41
2023-03-22T01:25:45.224Z,100208.75
2023-03-22T01:28:12.006Z,100211.41
2023-03-22T01:30:40.039Z,100207.47
2023-03-22T01:33:08.198Z,100207.06
2023-03-22T01:35:36.095Z,100210.50
2023-03-22T01:38:09.128Z,100213.66
2023-03-22T01:40:44.226Z,100209.63
2023-03-22T01:43:15.763Z,100210.31
2023-03-22T01:45:46.049Z,100211.34
2023-03-22T01:48:14.459Z,100209.09
2023-03-22T01:50:44.507Z,100212.66
2023-03-22T01:53:11.351Z,100211.16
2023-03-22T01:55:38.405Z,100212.22
2023-03-22T01:58:16.031Z,100215.78
2023-03-22T02:00:48.628Z,100211.66
2023-03-22T02:03:42.700Z,100211.47
2023-03-22T02:06:11.626Z,100220.75
2023-03-22T02:08:40.824Z,100224.03
2023-03-22T02:11:22.105Z,100221.22
2023-03-22T02:14:09.533Z,100222.69
2023-03-22T02:17:13.491Z,100220.81
2023-03-22T02:19:47.523Z,100219.16
2023-03-22T02:22:14.595Z,100221.75
2023-03-22T02:24:46.255Z,100217.41
2023-03-22T02:27:21.246Z,100215.69
2023-03-22T02:29:54.360Z,100214.72
2023-03-22T02:33:00.226Z,100223.06
2023-03-22T02:35:33.820Z,100233.31
2023-03-22T02:38:19.451Z,100231.50
2023-03-22T02:40:58.886Z,100230.91
2023-03-22T02:43:30.911Z,100235.69
2023-03-22T02:46:20.022Z,100232.22
2023-03-22T02:48:54.527Z,100240.19
2023-03-22T02:51:22.070Z,100225.25
2023-03-22T02:53:52.202Z,100230.28
2023-03-22T02:56:18.910Z,100233.34
2023-03-22T02:58:46.859Z,100235.72
2023-03-22T03:01:15.412Z,100233.34
2023-03-22T03:03:48.558Z,100235.22
2023-03-22T03:06:20.167Z,100235.22
2023-03-22T03:08:51.357Z,100233.91
2023-03-22T03:11:18.221Z,100231.88
2023-03-22T03:13:48.090Z,100236.13
2023-03-22T03:16:23.504Z,100237.38
2023-03-22T03:18:50.597Z,100241.06
2023-03-22T03:21:20.582Z,100234.16
2023-03-22T03:23:49.930Z,100238.50
2023-03-22T03:26:19.860Z,100240.28
2023-03-22T03:28:55.479Z,100235.03
2023-03-22T03:31:28.292Z,100236.09
2023-03-22T03:34:00.303Z,100242.94
2023-03-22T03:36:27.064Z,100240.03
2023-03-22T03:38:56.023Z,100249.47
2023-03-22T03:41:28.538Z,100247.75
2023-03-22T03:43:56.282Z,100240.53
2023-03-22T03:46:23.043Z,100246.72
2023-03-22T03:48:50.256Z,100245.41
2023-03-22T03:51:19.274Z,100252.41
2023-03-22T03:53:46.127Z,100250.16
2023-03-22T03:56:12.944Z,100244.25
2023-03-22T03:58:44.241Z,100236.13
2023-03-22T04:01:11.277Z,100248.13
2023-03-22T04:03:55.373Z,100243.19
2023-03-22T04:06:44.982Z,100239.72
2023-03-22T04:09:17.185Z,100233.44
2023-03-22T04:11:50.058Z,100228.34
2023-03-22T04:14:17.114Z,100222.09
2023-03-22T04:16:46.987Z,100231.84
2023-03-22T04:19:18.806Z,100237.28
2023-03-22T04:21:48.218Z,100241.16
2023-03-22T04:24:15.798Z,100242.09
2023-03-22T04:26:45.202Z,100251.34
2023-03-22T04:29:51.403Z,100252.78
2023-03-22T04:32:43.795Z,100254.50
2023-03-22T04:35:13.194Z,100251.69
2023-03-22T04:37:43.181Z,100251.66
2023-03-22T04:40:21.160Z,100251.59
2023-03-22T04:43:03.031Z,100260.09
2023-03-22T04:45:46.226Z,100255.66
2023-03-22T04:48:22.325Z,100249.63
2023-03-22T04:50:54.574Z,100246.28
2023-03-22T04:53:27.597Z,100258.47
2023-03-22T04:55:59.137Z,100263.81
2023-03-22T04:58:30.905Z,100262.16
2023-03-22T05:00:58.503Z,100258.75
2023-03-22T05:03:25.129Z,100257.72
2023-03-22T05:05:56.385Z,100264.75
2023-03-22T05:08:27.461Z,100271.56
2023-03-22T05:10:54.471Z,100281.94
2023-03-22T05:13:37.468Z,100278.59
2023-03-22T05:16:43.029Z,100283.41
2023-03-22T05:19:14.443Z,100285.00
2023-03-22T05:22:04.221Z,100284.41
2023-03-22T05:25:14.820Z,100279.53
2023-03-22T05:28:01.854Z,100278.69
2023-03-22T05:30:49.281Z,100275.56
2023-03-22T05:33:51.809Z,100281.25
2023-03-22T05:36:21.105Z,100289.47
2023-03-22T05:39:09.943Z,100287.38
2023-03-22T05:41:37.118Z,100280.41
2023-03-22T05:44:06.743Z,100280.25
2023-03-22T05:46:35.993Z,100285.31
2023-03-22T05:49:21.532Z,100287.41
2023-03-22T05:51:48.928Z,100298.31
2023-03-22T05:54:16.763Z,100298.88
2023-03-22T05:56:49.122Z,100293.06
2023-03-22T05:59:18.468Z,100294.03
2023-03-22T06:01:45.179Z,100303.84
2023-03-22T06:04:18.744Z,100309.31
2023-03-22T06:07:04.224Z,100311.47
2023-03-22T06:09:41.921Z,100315.09
2023-03-22T06:12:16.147Z,100311.78
2023-03-22T06:14:46.756Z,100302.75
2023-03-22T06:17:22.063Z,100302.84
2023-03-22T06:19:48.917Z,100310.66
2023-03-22T06:22:16.414Z,100316.06
2023-03-22T06:24:44.035Z,100316.25
2023-03-22T06:27:16.518Z,100315.72
2023-03-22T06:29:43.240Z,100321.00
2023-03-22T06:32:12.359Z,100329.84
2023-03-22T06:34:39.405Z,100320.97
2023-03-22T06:37:07.134Z,100319.66
2023-03-22T06:39:39.651Z,100319.28
2023-03-22T06:42:12.473Z,100324.97
2023-03-22T06:44:42.350Z,100324.56
2023-03-22T06:47:14.479Z,100329.69
2023-03-22T06:49:47.633Z,100324.94
2023-03-22T06:52:21.901Z,100317.63
2023-03-22T06:54:48.731Z,100330.97
2023-03-22T06:57:15.768Z,100329.09
2023-03-22T06:59:42.353Z,100323.72
2023-03-22T07:02:12.868Z,100324.91
2023-03-22T07:04:43.408Z,100322.88
2023-03-22T07:07:12.572Z,100328.31
2023-03-22T07:09:40.209Z,100327.84
2023-03-22T07:12:07.045Z,100330.72
2023-03-22T07:14:36.551Z,100333.66
2023-03-22T07:17:31.512Z,100338.28
2023-03-22T07:19:58.116Z,100335.94
2023-03-22T07:22:27.380Z,100336.97
2023-03-22T07:24:58.260Z,100343.28
2023-03-22T07:27:28.616Z,100340.16
2023-03-22T07:29:58.545Z,100328.06
2023-03-22T07:32:25.447Z,100315.22
2023-03-22T07:35:07.693Z,100323.25
2023-03-22T07:37:36.997Z,100327.63
2023-03-22T07:40:08.795Z,100337.25
2023-03-22T07:42:36.268Z,100328.78
2023-03-22T07:45:09.185Z,100330.53
2023-03-22T07:47:45.018Z,100329.78
2023-03-22T07:50:31.649Z,100329.59
2023-03-22T07:53:00.434Z,100335.13
2023-03-22T07:55:27.182Z,100329.03
2023-03-22T07:57:56.589Z,100321.13
2023-03-22T08:00:23.576Z,100318.81
2023-03-22T08:03:01.817Z,100316.38
2023-03-22T08:05:51.802Z,100306.56
2023-03-22T08:08:19.891Z,100306.47
2023-03-22T08:10:53.010Z,100310.59
2023-03-22T08:13:20.162Z,100314.25
2023-03-22T08:15:49.449Z,100324.59
2023-03-22T08:18:19.305Z,100318.31
2023-03-22T08:20:52.411Z,100315.22
2023-03-22T08:23:26.433Z,100318.50
2023-03-22T08:26:17.905Z,100321.72
2023-03-22T08:28:47.854Z,100327.66
2023-03-22T08:31:15.541Z,100326.59
2023-03-22T08:33:44.306Z,100333.28
2023-03-22T08:36:12.871Z,100338.63
2023-03-22T08:38:46.305Z,100332.50
2023-03-22T08:41:18.746Z,100337.44
2023-03-22T08:43:50.944Z,100338.19
2023-03-22T08:46:17.793Z,100332.16
2023-03-22T08:48:54.260Z,100321.81
2023-03-22T08:51:31.265Z,100328.50
2023-03-22T08:54:12.549Z,100312.13
2023-03-22T08:56:59.320Z,100325.25
2023-03-22T08:59:54.472Z,100320.94
2023-03-22T09:02:38.100Z,100327.75
2023-03-22T09:05:04.986Z,100334.84
2023-03-22T09:07:32.302Z,100331.47
2023-03-22T09:10:16.934Z,100327.34
2023-03-22T09:12:46.034Z,100334.78
2023-03-22T09:15:12.775Z,100328.00
2023-03-22T09:17:45.568Z,100327.91
2023-03-22T09:20:13.419Z,100325.22
2023-03-22T09:22:45.960Z,100328.25
2023-03-22T09:25:15.619Z,100328.59
2023-03-22T09:27:47.452Z,100318.34
2023-03-22T09:30:14.388Z,100315.84
2023-03-22T09:32:41.519Z,100315.09
2023-03-22T09:35:10.937Z,100318.13
2023-03-22T09:37:53.489Z,100312.56
2023-03-22T09:40:21.390Z,100311.59
2023-03-22T09:42:52.505Z,100304.53
2023-03-22T09:45:21.277Z,100311.38
2023-03-22T09:47:49.271Z,100310.66
2023-03-22T09:50:22.095Z,100302.19
2023-03-22T09:52:48.944Z,100308.19
2023-03-22T09:55:19.521Z,100301.88
2023-03-22T09:57:48.947Z,100310.44
2023-03-22T10:00:21.024Z,100303.34
2023-03-22T10:03:06.265Z,100312.19
2023-03-22T10:05:38.946Z,100303.59
2023-03-22T10:08:14.525Z,100306.94
2023-03-22T10:10:42.154Z,100301.56
2023-03-22T10:13:24.198Z,100303.84
2023-03-22T10:15:52.316Z,100314.75
2023-03-22T10:18:25.820Z,100302.59
2023-03-22T10:20:58.404Z,100297.84
2023-03-22T10:23:28.201Z,100301.28
2023-03-22T10:25:54.923Z,100297.63
2023-03-22T10:28:22.642Z,100299.44
2023-03-22T10:30:53.697Z,100294.44
2023-03-22T10:33:39.777Z,100300.72
2023-03-22T10:36:10.349Z,100296.56
2023-03-22T10:38:37.594Z,100300.00
2023-03-22T10:41:06.791Z,100299.06
2023-03-22T10:43:36.901Z,100298.25
2023-03-22T10:46:07.784Z,100296.53
2023-03-22T10:48:44.730Z,100286.06
2023-03-22T10:51:12.138Z,100293.91
2023-03-22T10:53:40.016Z,100289.28
2023-03-22T10:56:10.630Z,100292.56
2023-03-22T10:58:37.433Z,100289.66
2023-03-22T11:01:08.483Z,100289.81
2023-03-22T11:03:35.261Z,100287.38
2023-03-22T11:06:22.166Z,100287.63
2023-03-22T11:08:48.811Z,100275.56
2023-03-22T11:11:31.716Z,100277.94
2023-03-22T11:14:08.494Z,100284.88
2023-03-22T11:16:47.693Z,100270.81
2023-03-22T11:19:15.265Z,100261.94
2023-03-22T11:21:44.571Z,100262.84
2023-03-22T11:24:11.568Z,100261.06
2023-03-22T11:26:40.905Z,100256.00
2023-03-22T11:29:17.082Z,100253.38
2023-03-22T11:31:56.140Z,100252.56
2023-03-22T11:34:27.102Z,100254.38
2023-03-22T11:36:57.184Z,100255.31
2023-03-22T11:39:30.527Z,100241.47
2023-03-22T11:41:58.887Z,100238.38
2023-03-22T11:44:26.267Z,100235.88
2023-03-22T11:46:55.027Z,100228.25
2023-03-22T11:49:27.068Z,100229.16
2023-03-22T11:51:54.545Z,100226.56
2023-03-22T11:54:32.246Z,100226.63
2023-03-22T11:57:00.064Z,100231.22
2023-03-22T11:59:28.737Z,100232.06
2023-03-22T12:01:58.110Z,100229.66
2023-03-22T12:04:30.498Z,100223.66
2023-03-22T12:06:58.634Z,100219.22
2023-03-22T12:09:25.855Z,100215.72
2023-03-22T12:11:53.770Z,100225.25
2023-03-22T12:14:31.518Z,100225.25
2023-03-22T12:17:01.329Z,100219.09
2023-03-22T12:19:41.653Z,100230.56
2023-03-22T12:22:12.072Z,100221.81
2023-03-22T12:24:39.231Z,100219.19
2023-03-22T12:27:24.489Z,100215.56
2023-03-22T12:29:59.653Z,100215.53
2023-03-22T12:32:41.952Z,100215.56
2023-03-22T12:35:17.528Z,100215.47
2023-03-22T12:37:53.688Z,100221.63
2023-03-22T12:40:22.779Z,100221.72
2023-03-22T12:42:55.566Z,100213.78
2023-03-22T12:45:25.004Z,100218.78
2023-03-22T12:47:54.026Z,100205.69
2023-03-22T12:50:25.124Z,100201.97
2023-03-22T12:52:59.500Z,100198.44
2023-03-22T12:55:27.765Z,100195.88
2023-03-22T12:57:57.649Z,100203.97
2023-03-22T13:00:27.683Z,100205.94
2023-03-22T13:03:15.168Z,100198.06
2023-03-22T13:05:43.884Z,100191.84
2023-03-22T13:08:13.066Z,100184.75
2023-03-22T13:10:48.674Z,100182.97
2023-03-22T13:13:24.254Z,100169.72
2023-03-22T13:15:54.309Z,100179.91
2023-03-22T13:18:33.122Z,100173.91
2023-03-22T13:21:10.312Z,100173.16
2023-03-22T13:23:39.437Z,100173.31
2023-03-22T13:26:09.793Z,100165.34
2023-03-22T13:28:39.047Z,100156.97
2023-03-22T13:31:17.284Z,100156.53
2023-03-22T13:33:45.974Z,100160.09
2023-03-22T13:36:29.563Z,100150.31
2023-03-22T13:38:57.332Z,100148.53
2023-03-22T13:41:38.017Z,100161.25
2023-03-22T13:44:41.757Z,100151.66
2023-03-22T13:47:09.560Z,100152.78
2023-03-22T13:49:49.649Z,100151.88
2023-03-22T13:52:46.230Z,100154.66
2023-03-22T13:55:38.686Z,100149.78
2023-03-22T13:59:05.668Z,100147.13
2023-03-22T14:01:44.418Z,100147.16
2023-03-22T14:09:00.167Z,100139.13
2023-03-22T14:11:44.346Z,100143.44
2023-03-22T14:14:13.356Z,100133.72
2023-03-22T14:17:00.488Z,100135.63
